sensor_id;sensor_type;location;lat;lon;timestamp;P1;durP1;ratioP1;P2;durP2;ratioP2
46348;SDS011;32057;47.830;19.046;2022-08-24T00:01:03;3.45;;;3.00;;
46348;SDS011;32057;47.830;19.046;2022-08-24T00:03:30;3.47;;;3.17;;
46348;SDS011;32057;47.830;19.046;2022-08-24T00:05:56;3.90;;;3.33;;
46348;SDS011;32057;47.830;19.046;2022-08-24T00:08:21;4.10;;;3.42;;
46348;SDS011;32057;47.830;19.046;2022-08-24T00:10:47;4.30;;;3.28;;
46348;SDS011;32057;47.830;19.046;2022-08-24T00:13:12;4.22;;;3.85;;
46348;SDS011;32057;47.830;19.046;2022-08-24T00:15:39;4.53;;;3.97;;
46348;SDS011;32057;47.830;19.046;2022-08-24T00:18:05;3.53;;;3.22;;
46348;SDS011;32057;47.830;19.046;2022-08-24T00:20:31;3.95;;;3.60;;
46348;SDS011;32057;47.830;19.046;2022-08-24T00:22:56;4.43;;;3.88;;
46348;SDS011;32057;47.830;19.046;2022-08-24T00:25:22;6.60;;;3.97;;
46348;SDS011;32057;47.830;19.046;2022-08-24T00:27:48;4.32;;;3.92;;
46348;SDS011;32057;47.830;19.046;2022-08-24T00:30:16;4.78;;;4.10;;
46348;SDS011;32057;47.830;19.046;2022-08-24T00:32:43;5.05;;;4.22;;
46348;SDS011;32057;47.830;19.046;2022-08-24T00:35:11;4.22;;;3.83;;
46348;SDS011;32057;47.830;19.046;2022-08-24T00:37:37;4.53;;;3.88;;
46348;SDS011;32057;47.830;19.046;2022-08-24T00:40:04;5.82;;;4.60;;
46348;SDS011;32057;47.830;19.046;2022-08-24T00:42:35;4.18;;;3.55;;
46348;SDS011;32057;47.830;19.046;2022-08-24T00:45:03;5.88;;;5.28;;
46348;SDS011;32057;47.830;19.046;2022-08-24T00:47:31;7.03;;;4.43;;
46348;SDS011;32057;47.830;19.046;2022-08-24T00:50:07;4.25;;;3.47;;
46348;SDS011;32057;47.830;19.046;2022-08-24T00:52:46;5.47;;;4.07;;
46348;SDS011;32057;47.830;19.046;2022-08-24T00:55:44;3.75;;;3.25;;
46348;SDS011;32057;47.830;19.046;2022-08-24T00:58:21;4.28;;;3.88;;
46348;SDS011;32057;47.830;19.046;2022-08-24T01:00:59;3.60;;;3.28;;
46348;SDS011;32057;47.830;19.046;2022-08-24T01:03:27;4.47;;;4.07;;
46348;SDS011;32057;47.830;19.046;2022-08-24T01:05:54;4.57;;;4.05;;
46348;SDS011;32057;47.830;19.046;2022-08-24T01:08:20;5.95;;;4.18;;
46348;SDS011;32057;47.830;19.046;2022-08-24T01:10:49;3.95;;;3.58;;
46348;SDS011;32057;47.830;19.046;2022-08-24T01:13:19;8.23;;;4.78;;
46348;SDS011;32057;47.830;19.046;2022-08-24T01:15:47;4.72;;;4.25;;
46348;SDS011;32057;47.830;19.046;2022-08-24T01:18:16;7.78;;;3.45;;
46348;SDS011;32057;47.830;19.046;2022-08-24T01:24:01;4.03;;;3.63;;
46348;SDS011;32057;47.830;19.046;2022-08-24T01:29:05;4.22;;;3.83;;
46348;SDS011;32057;47.830;19.046;2022-08-24T01:31:37;4.15;;;3.72;;
46348;SDS011;32057;47.830;19.046;2022-08-24T01:34:03;5.80;;;4.60;;
46348;SDS011;32057;47.830;19.046;2022-08-24T01:39:04;5.57;;;4.82;;
46348;SDS011;32057;47.830;19.046;2022-08-24T01:41:51;4.57;;;3.97;;
46348;SDS011;32057;47.830;19.046;2022-08-24T01:44:17;4.78;;;3.90;;
46348;SDS011;32057;47.830;19.046;2022-08-24T01:46:45;5.90;;;4.70;;
46348;SDS011;32057;47.830;19.046;2022-08-24T01:49:12;5.15;;;4.63;;
46348;SDS011;32057;47.830;19.046;2022-08-24T01:51:38;5.30;;;4.30;;
46348;SDS011;32057;47.830;19.046;2022-08-24T01:54:04;9.68;;;4.85;;
46348;SDS011;32057;47.830;19.046;2022-08-24T01:56:31;6.72;;;4.97;;
46348;SDS011;32057;47.830;19.046;2022-08-24T01:58:57;5.32;;;4.82;;
46348;SDS011;32057;47.830;19.046;2022-08-24T02:01:23;5.22;;;3.95;;
46348;SDS011;32057;47.830;19.046;2022-08-24T02:03:51;6.47;;;5.18;;
46348;SDS011;32057;47.830;19.046;2022-08-24T02:06:16;7.35;;;5.47;;
46348;SDS011;32057;47.830;19.046;2022-08-24T02:08:43;4.25;;;3.60;;
46348;SDS011;32057;47.830;19.046;2022-08-24T02:11:09;6.95;;;5.43;;
46348;SDS011;32057;47.830;19.046;2022-08-24T02:13:35;6.13;;;4.50;;
46348;SDS011;32057;47.830;19.046;2022-08-24T02:16:02;6.05;;;5.03;;
46348;SDS011;32057;47.830;19.046;2022-08-24T02:18:28;6.25;;;5.65;;
46348;SDS011;32057;47.830;19.046;2022-08-24T02:20:54;5.70;;;4.75;;
46348;SDS011;32057;47.830;19.046;2022-08-24T02:23:19;4.32;;;3.95;;
46348;SDS011;32057;47.830;19.046;2022-08-24T02:25:46;7.50;;;5.75;;
46348;SDS011;32057;47.830;19.046;2022-08-24T02:28:11;6.82;;;4.85;;
46348;SDS011;32057;47.830;19.046;2022-08-24T02:30:37;6.55;;;4.20;;
46348;SDS011;32057;47.830;19.046;2022-08-24T02:33:04;7.50;;;4.70;;
46348;SDS011;32057;47.830;19.046;2022-08-24T02:35:31;7.82;;;4.68;;
46348;SDS011;32057;47.830;19.046;2022-08-24T02:37:56;4.28;;;3.75;;
46348;SDS011;32057;47.830;19.046;2022-08-24T02:40:22;5.25;;;4.30;;
46348;SDS011;32057;47.830;19.046;2022-08-24T02:42:48;6.07;;;4.72;;
46348;SDS011;32057;47.830;19.046;2022-08-24T02:45:14;6.32;;;4.82;;
46348;SDS011;32057;47.830;19.046;2022-08-24T02:47:40;5.10;;;4.07;;
46348;SDS011;32057;47.830;19.046;2022-08-24T02:50:07;4.82;;;4.32;;
46348;SDS011;32057;47.830;19.046;2022-08-24T02:52:36;5.88;;;4.60;;
46348;SDS011;32057;47.830;19.046;2022-08-24T02:55:03;7.57;;;5.43;;
46348;SDS011;32057;47.830;19.046;2022-08-24T02:57:30;5.57;;;4.70;;
46348;SDS011;32057;47.830;19.046;2022-08-24T02:59:55;4.10;;;3.70;;
46348;SDS011;32057;47.830;19.046;2022-08-24T03:02:21;5.30;;;4.60;;
46348;SDS011;32057;47.830;19.046;2022-08-24T03:04:46;7.07;;;5.10;;
46348;SDS011;32057;47.830;19.046;2022-08-24T03:07:12;6.50;;;5.03;;
46348;SDS011;32057;47.830;19.046;2022-08-24T03:09:37;5.15;;;4.65;;
46348;SDS011;32057;47.830;19.046;2022-08-24T03:12:03;5.75;;;4.55;;
46348;SDS011;32057;47.830;19.046;2022-08-24T03:14:28;4.65;;;4.15;;
46348;SDS011;32057;47.830;19.046;2022-08-24T03:16:54;6.55;;;4.03;;
46348;SDS011;32057;47.830;19.046;2022-08-24T03:19:19;4.80;;;3.78;;
46348;SDS011;32057;47.830;19.046;2022-08-24T03:21:46;5.05;;;4.28;;
46348;SDS011;32057;47.830;19.046;2022-08-24T03:24:11;4.35;;;3.75;;
46348;SDS011;32057;47.830;19.046;2022-08-24T03:26:37;3.45;;;2.95;;
46348;SDS011;32057;47.830;19.046;2022-08-24T03:29:03;4.85;;;4.10;;
46348;SDS011;32057;47.830;19.046;2022-08-24T03:31:29;5.97;;;4.25;;
46348;SDS011;32057;47.830;19.046;2022-08-24T03:33:54;5.28;;;3.95;;
46348;SDS011;32057;47.830;19.046;2022-08-24T03:36:20;4.80;;;3.92;;
46348;SDS011;32057;47.830;19.046;2022-08-24T03:38:45;5.15;;;3.72;;
46348;SDS011;32057;47.830;19.046;2022-08-24T03:41:11;6.50;;;4.03;;
46348;SDS011;32057;47.830;19.046;2022-08-24T03:43:37;4.07;;;3.67;;
46348;SDS011;32057;47.830;19.046;2022-08-24T03:46:10;4.88;;;4.35;;
46348;SDS011;32057;47.830;19.046;2022-08-24T03:48:38;7.47;;;4.72;;
46348;SDS011;32057;47.830;19.046;2022-08-24T03:51:14;6.97;;;4.05;;
46348;SDS011;32057;47.830;19.046;2022-08-24T03:53:42;6.90;;;4.55;;
46348;SDS011;32057;47.830;19.046;2022-08-24T03:56:07;5.20;;;4.28;;
46348;SDS011;32057;47.830;19.046;2022-08-24T03:58:34;5.75;;;4.65;;
46348;SDS011;32057;47.830;19.046;2022-08-24T04:01:01;4.50;;;4.07;;
46348;SDS011;32057;47.830;19.046;2022-08-24T04:03:27;5.57;;;5.00;;
46348;SDS011;32057;47.830;19.046;2022-08-24T04:05:53;5.57;;;4.57;;
46348;SDS011;32057;47.830;19.046;2022-08-24T04:08:18;5.93;;;4.70;;
46348;SDS011;32057;47.830;19.046;2022-08-24T04:10:45;5.20;;;4.45;;
46348;SDS011;32057;47.830;19.046;2022-08-24T04:13:12;11.68;;;4.97;;
46348;SDS011;32057;47.830;19.046;2022-08-24T04:15:41;6.30;;;4.35;;
46348;SDS011;32057;47.830;19.046;2022-08-24T04:18:07;4.90;;;4.32;;
46348;SDS011;32057;47.830;19.046;2022-08-24T04:20:39;4.50;;;4.10;;
46348;SDS011;32057;47.830;19.046;2022-08-24T04:23:06;6.40;;;5.10;;
46348;SDS011;32057;47.830;19.046;2022-08-24T04:25:43;5.70;;;4.68;;
46348;SDS011;32057;47.830;19.046;2022-08-24T04:28:11;6.07;;;5.13;;
46348;SDS011;32057;47.830;19.046;2022-08-24T04:30:39;7.03;;;4.95;;
46348;SDS011;32057;47.830;19.046;2022-08-24T04:33:06;6.45;;;4.70;;
46348;SDS011;32057;47.830;19.046;2022-08-24T04:35:35;7.85;;;4.78;;
46348;SDS011;32057;47.830;19.046;2022-08-24T04:38:02;5.05;;;4.18;;
46348;SDS011;32057;47.830;19.046;2022-08-24T04:40:27;8.23;;;5.15;;
46348;SDS011;32057;47.830;19.046;2022-08-24T04:42:53;5.05;;;4.10;;
46348;SDS011;32057;47.830;19.046;2022-08-24T04:45:18;5.90;;;4.65;;
46348;SDS011;32057;47.830;19.046;2022-08-24T04:47:44;6.47;;;5.68;;
46348;SDS011;32057;47.830;19.046;2022-08-24T04:50:09;5.22;;;4.70;;
46348;SDS011;32057;47.830;19.046;2022-08-24T04:52:35;5.30;;;4.80;;
46348;SDS011;32057;47.830;19.046;2022-08-24T04:55:01;5.10;;;4.10;;
46348;SDS011;32057;47.830;19.046;2022-08-24T04:57:26;6.10;;;4.60;;
46348;SDS011;32057;47.830;19.046;2022-08-24T04:59:54;5.00;;;4.50;;
46348;SDS011;32057;47.830;19.046;2022-08-24T05:02:20;5.50;;;4.68;;
46348;SDS011;32057;47.830;19.046;2022-08-24T05:04:46;6.22;;;5.15;;
46348;SDS011;32057;47.830;19.046;2022-08-24T05:07:12;5.10;;;4.10;;
46348;SDS011;32057;47.830;19.046;2022-08-24T05:09:37;6.60;;;4.50;;
46348;SDS011;32057;47.830;19.046;2022-08-24T05:12:03;4.78;;;3.97;;
46348;SDS011;32057;47.830;19.046;2022-08-24T05:14:29;4.95;;;3.92;;
46348;SDS011;32057;47.830;19.046;2022-08-24T05:16:55;5.60;;;4.60;;
46348;SDS011;32057;47.830;19.046;2022-08-24T05:19:21;4.75;;;3.85;;
46348;SDS011;32057;47.830;19.046;2022-08-24T05:21:47;5.60;;;4.53;;
46348;SDS011;32057;47.830;19.046;2022-08-24T05:24:13;5.80;;;4.32;;
46348;SDS011;32057;47.830;19.046;2022-08-24T05:26:39;5.05;;;4.40;;
46348;SDS011;32057;47.830;19.046;2022-08-24T05:29:04;6.13;;;4.82;;
46348;SDS011;32057;47.830;19.046;2022-08-24T05:31:30;7.53;;;5.50;;
46348;SDS011;32057;47.830;19.046;2022-08-24T05:33:57;6.15;;;5.00;;
46348;SDS011;32057;47.830;19.046;2022-08-24T05:36:26;6.57;;;5.03;;
46348;SDS011;32057;47.830;19.046;2022-08-24T05:38:56;8.25;;;5.88;;
46348;SDS011;32057;47.830;19.046;2022-08-24T05:41:24;6.25;;;4.95;;
46348;SDS011;32057;47.830;19.046;2022-08-24T05:43:52;6.88;;;4.80;;
46348;SDS011;32057;47.830;19.046;2022-08-24T05:46:18;6.35;;;5.75;;
46348;SDS011;32057;47.830;19.046;2022-08-24T05:48:44;7.50;;;5.30;;
46348;SDS011;32057;47.830;19.046;2022-08-24T05:51:10;6.07;;;5.13;;
46348;SDS011;32057;47.830;19.046;2022-08-24T05:53:37;7.97;;;5.65;;
46348;SDS011;32057;47.830;19.046;2022-08-24T05:56:03;7.00;;;4.45;;
46348;SDS011;32057;47.830;19.046;2022-08-24T05:58:31;6.90;;;4.80;;
46348;SDS011;32057;47.830;19.046;2022-08-24T06:00:56;5.60;;;4.18;;
46348;SDS011;32057;47.830;19.046;2022-08-24T06:03:23;9.60;;;5.85;;
46348;SDS011;32057;47.830;19.046;2022-08-24T06:05:50;6.28;;;4.97;;
46348;SDS011;32057;47.830;19.046;2022-08-24T06:08:17;4.55;;;4.03;;
46348;SDS011;32057;47.830;19.046;2022-08-24T06:10:44;6.78;;;5.10;;
46348;SDS011;32057;47.830;19.046;2022-08-24T06:13:13;6.80;;;4.95;;
46348;SDS011;32057;47.830;19.046;2022-08-24T06:15:40;6.63;;;4.60;;
46348;SDS011;32057;47.830;19.046;2022-08-24T06:18:06;4.47;;;3.65;;
46348;SDS011;32057;47.830;19.046;2022-08-24T06:20:35;5.03;;;3.75;;
46348;SDS011;32057;47.830;19.046;2022-08-24T06:23:03;4.55;;;3.88;;
46348;SDS011;32057;47.830;19.046;2022-08-24T06:25:29;3.70;;;3.40;;
46348;SDS011;32057;47.830;19.046;2022-08-24T06:28:13;6.07;;;4.43;;
46348;SDS011;32057;47.830;19.046;2022-08-24T06:30:39;3.88;;;3.33;;
46348;SDS011;32057;47.830;19.046;2022-08-24T06:33:07;4.55;;;3.35;;
46348;SDS011;32057;47.830;19.046;2022-08-24T06:35:33;10.30;;;3.58;;
46348;SDS011;32057;47.830;19.046;2022-08-24T06:37:58;4.07;;;3.42;;
46348;SDS011;32057;47.830;19.046;2022-08-24T06:40:24;3.75;;;3.33;;
46348;SDS011;32057;47.830;19.046;2022-08-24T06:42:50;6.75;;;4.63;;
46348;SDS011;32057;47.830;19.046;2022-08-24T06:45:15;3.88;;;2.83;;
46348;SDS011;32057;47.830;19.046;2022-08-24T06:47:41;6.68;;;3.67;;
46348;SDS011;32057;47.830;19.046;2022-08-24T06:50:07;5.07;;;3.45;;
46348;SDS011;32057;47.830;19.046;2022-08-24T06:52:33;3.13;;;2.83;;
46348;SDS011;32057;47.830;19.046;2022-08-24T06:54:59;4.20;;;3.15;;
46348;SDS011;32057;47.830;19.046;2022-08-24T06:57:25;3.30;;;2.53;;
46348;SDS011;32057;47.830;19.046;2022-08-24T06:59:51;4.03;;;2.55;;
46348;SDS011;32057;47.830;19.046;2022-08-24T07:02:17;2.70;;;2.50;;
46348;SDS011;32057;47.830;19.046;2022-08-24T07:04:43;3.42;;;2.40;;
46348;SDS011;32057;47.830;19.046;2022-08-24T07:07:09;3.30;;;2.97;;
46348;SDS011;32057;47.830;19.046;2022-08-24T07:09:35;3.97;;;2.72;;
46348;SDS011;32057;47.830;19.046;2022-08-24T07:12:01;2.38;;;2.10;;
46348;SDS011;32057;47.830;19.046;2022-08-24T07:14:26;3.63;;;2.28;;
46348;SDS011;32057;47.830;19.046;2022-08-24T07:16:52;2.05;;;1.80;;
46348;SDS011;32057;47.830;19.046;2022-08-24T07:19:17;2.38;;;2.17;;
46348;SDS011;32057;47.830;19.046;2022-08-24T07:21:43;2.53;;;2.20;;
46348;SDS011;32057;47.830;19.046;2022-08-24T07:24:09;2.65;;;2.45;;
46348;SDS011;32057;47.830;19.046;2022-08-24T07:26:34;3.05;;;2.72;;
46348;SDS011;32057;47.830;19.046;2022-08-24T07:29:03;5.00;;;2.05;;
46348;SDS011;32057;47.830;19.046;2022-08-24T07:31:39;4.10;;;2.58;;
46348;SDS011;32057;47.830;19.046;2022-08-24T07:34:07;2.63;;;2.42;;
46348;SDS011;32057;47.830;19.046;2022-08-24T07:36:35;2.22;;;2.03;;
46348;SDS011;32057;47.830;19.046;2022-08-24T07:39:02;3.13;;;2.33;;
46348;SDS011;32057;47.830;19.046;2022-08-24T07:41:29;4.72;;;2.90;;
46348;SDS011;32057;47.830;19.046;2022-08-24T07:43:55;3.22;;;2.53;;
46348;SDS011;32057;47.830;19.046;2022-08-24T07:46:21;3.30;;;2.45;;
46348;SDS011;32057;47.830;19.046;2022-08-24T07:48:47;2.50;;;2.20;;
46348;SDS011;32057;47.830;19.046;2022-08-24T07:51:13;2.42;;;2.17;;
46348;SDS011;32057;47.830;19.046;2022-08-24T07:53:42;2.58;;;2.35;;
46348;SDS011;32057;47.830;19.046;2022-08-24T07:56:08;3.88;;;2.15;;
46348;SDS011;32057;47.830;19.046;2022-08-24T07:58:34;3.30;;;2.20;;
46348;SDS011;32057;47.830;19.046;2022-08-24T08:01:00;2.92;;;2.05;;
46348;SDS011;32057;47.830;19.046;2022-08-24T08:03:26;2.40;;;2.20;;
46348;SDS011;32057;47.830;19.046;2022-08-24T08:05:56;2.47;;;2.28;;
46348;SDS011;32057;47.830;19.046;2022-08-24T08:08:24;2.83;;;2.45;;
46348;SDS011;32057;47.830;19.046;2022-08-24T08:10:50;2.17;;;2.00;;
46348;SDS011;32057;47.830;19.046;2022-08-24T08:13:16;6.63;;;2.13;;
46348;SDS011;32057;47.830;19.046;2022-08-24T08:15:42;1.75;;;1.65;;
46348;SDS011;32057;47.830;19.046;2022-08-24T08:18:08;2.55;;;2.03;;
46348;SDS011;32057;47.830;19.046;2022-08-24T08:20:35;1.98;;;1.88;;
46348;SDS011;32057;47.830;19.046;2022-08-24T08:23:02;3.25;;;2.67;;
46348;SDS011;32057;47.830;19.046;2022-08-24T08:28:38;2.45;;;2.08;;
46348;SDS011;32057;47.830;19.046;2022-08-24T08:31:06;3.35;;;2.40;;
46348;SDS011;32057;47.830;19.046;2022-08-24T08:33:32;2.38;;;2.17;;
46348;SDS011;32057;47.830;19.046;2022-08-24T08:36:07;1.90;;;1.80;;
46348;SDS011;32057;47.830;19.046;2022-08-24T08:38:35;2.97;;;1.95;;
46348;SDS011;32057;47.830;19.046;2022-08-24T09:00:22;2.40;;;2.00;;
46348;SDS011;32057;47.830;19.046;2022-08-24T09:10:56;3.97;;;2.70;;
46348;SDS011;32057;47.830;19.046;2022-08-24T09:16:15;2.15;;;2.00;;
46348;SDS011;32057;47.830;19.046;2022-08-24T09:21:48;2.28;;;2.08;;
46348;SDS011;32057;47.830;19.046;2022-08-24T09:24:43;1.98;;;1.88;;
46348;SDS011;32057;47.830;19.046;2022-08-24T09:30:12;2.40;;;2.20;;
46348;SDS011;32057;47.830;19.046;2022-08-24T09:32:59;3.72;;;3.42;;
46348;SDS011;32057;47.830;19.046;2022-08-24T09:38:34;3.00;;;1.48;;
46348;SDS011;32057;47.830;19.046;2022-08-24T09:50:08;2.05;;;1.95;;
46348;SDS011;32057;47.830;19.046;2022-08-24T09:55:27;3.53;;;3.20;;
46348;SDS011;32057;47.830;19.046;2022-08-24T10:03:25;5.30;;;1.88;;
46348;SDS011;32057;47.830;19.046;2022-08-24T10:11:37;3.72;;;2.50;;
46348;SDS011;32057;47.830;19.046;2022-08-24T10:27:50;2.22;;;2.13;;
46348;SDS011;32057;47.830;19.046;2022-08-24T10:33:12;5.40;;;2.55;;
46348;SDS011;32057;47.830;19.046;2022-08-24T10:38:49;3.85;;;2.60;;
46348;SDS011;32057;47.830;19.046;2022-08-24T10:46:57;2.33;;;2.15;;
46348;SDS011;32057;47.830;19.046;2022-08-24T10:54:43;2.75;;;2.55;;
46348;SDS011;32057;47.830;19.046;2022-08-24T11:00:14;5.20;;;2.63;;
46348;SDS011;32057;47.830;19.046;2022-08-24T11:02:44;3.25;;;2.95;;
46348;SDS011;32057;47.830;19.046;2022-08-24T11:05:14;3.03;;;2.70;;
46348;SDS011;32057;47.830;19.046;2022-08-24T11:10:23;3.22;;;2.70;;
46348;SDS011;32057;47.830;19.046;2022-08-24T11:12:52;4.88;;;3.08;;
46348;SDS011;32057;47.830;19.046;2022-08-24T11:18:02;4.07;;;3.10;;
46348;SDS011;32057;47.830;19.046;2022-08-24T11:20:34;5.50;;;3.25;;
46348;SDS011;32057;47.830;19.046;2022-08-24T11:23:25;4.00;;;2.83;;
46348;SDS011;32057;47.830;19.046;2022-08-24T11:26:08;6.80;;;4.22;;
46348;SDS011;32057;47.830;19.046;2022-08-24T11:28:44;4.18;;;3.20;;
46348;SDS011;32057;47.830;19.046;2022-08-24T11:34:13;3.03;;;2.70;;
46348;SDS011;32057;47.830;19.046;2022-08-24T11:36:40;3.63;;;2.67;;
46348;SDS011;32057;47.830;19.046;2022-08-24T11:39:16;5.00;;;3.33;;
46348;SDS011;32057;47.830;19.046;2022-08-24T11:55:33;7.10;;;3.42;;
46348;SDS011;32057;47.830;19.046;2022-08-24T11:58:22;3.97;;;3.30;;
46348;SDS011;32057;47.830;19.046;2022-08-24T12:12:50;4.22;;;3.15;;
46348;SDS011;32057;47.830;19.046;2022-08-24T12:20:55;4.63;;;3.83;;
46348;SDS011;32057;47.830;19.046;2022-08-24T12:23:26;5.65;;;3.78;;
46348;SDS011;32057;47.830;19.046;2022-08-24T12:26:08;5.93;;;3.28;;
46348;SDS011;32057;47.830;19.046;2022-08-24T12:28:50;4.22;;;3.83;;
46348;SDS011;32057;47.830;19.046;2022-08-24T12:33:53;6.47;;;4.15;;
46348;SDS011;32057;47.830;19.046;2022-08-24T12:36:30;4.68;;;4.10;;
46348;SDS011;32057;47.830;19.046;2022-08-24T12:39:12;3.92;;;3.55;;
46348;SDS011;32057;47.830;19.046;2022-08-24T12:45:01;5.32;;;4.10;;
46348;SDS011;32057;47.830;19.046;2022-08-24T12:47:43;6.47;;;4.20;;
46348;SDS011;32057;47.830;19.046;2022-08-24T12:59:05;4.10;;;3.70;;
46348;SDS011;32057;47.830;19.046;2022-08-24T13:01:57;6.65;;;3.10;;
46348;SDS011;32057;47.830;19.046;2022-08-24T13:06:58;4.35;;;3.38;;
46348;SDS011;32057;47.830;19.046;2022-08-24T13:11:54;3.83;;;3.40;;
46348;SDS011;32057;47.830;19.046;2022-08-24T13:14:22;2.92;;;2.55;;
46348;SDS011;32057;47.830;19.046;2022-08-24T13:22:01;2.75;;;2.50;;
46348;SDS011;32057;47.830;19.046;2022-08-24T13:25:00;3.67;;;3.35;;
46348;SDS011;32057;47.830;19.046;2022-08-24T13:30:17;5.03;;;3.45;;
46348;SDS011;32057;47.830;19.046;2022-08-24T13:32:48;3.50;;;3.00;;
46348;SDS011;32057;47.830;19.046;2022-08-24T13:40:57;5.18;;;2.78;;
46348;SDS011;32057;47.830;19.046;2022-08-24T13:43:37;4.88;;;2.90;;
46348;SDS011;32057;47.830;19.046;2022-08-24T13:46:16;3.17;;;2.67;;
46348;SDS011;32057;47.830;19.046;2022-08-24T13:54:33;4.85;;;2.50;;
46348;SDS011;32057;47.830;19.046;2022-08-24T14:08:23;3.15;;;2.80;;
46348;SDS011;32057;47.830;19.046;2022-08-24T14:25:28;2.38;;;2.05;;
46348;SDS011;32057;47.830;19.046;2022-08-24T14:35:42;2.58;;;2.28;;
46348;SDS011;32057;47.830;19.046;2022-08-24T15:00:24;2.40;;;2.13;;
46348;SDS011;32057;47.830;19.046;2022-08-24T15:06:39;2.70;;;2.50;;
46348;SDS011;32057;47.830;19.046;2022-08-24T15:11:46;2.75;;;2.50;;
46348;SDS011;32057;47.830;19.046;2022-08-24T15:17:02;4.45;;;2.40;;
46348;SDS011;32057;47.830;19.046;2022-08-24T15:19:55;2.80;;;2.60;;
46348;SDS011;32057;47.830;19.046;2022-08-24T15:27:42;10.52;;;2.72;;
46348;SDS011;32057;47.830;19.046;2022-08-24T15:30:28;6.03;;;2.92;;
46348;SDS011;32057;47.830;19.046;2022-08-24T15:38:23;3.50;;;3.20;;
46348;SDS011;32057;47.830;19.046;2022-08-24T15:41:16;7.28;;;4.85;;
46348;SDS011;32057;47.830;19.046;2022-08-24T15:43:43;3.67;;;3.17;;
46348;SDS011;32057;47.830;19.046;2022-08-24T15:46:12;8.02;;;3.70;;
46348;SDS011;32057;47.830;19.046;2022-08-24T15:48:44;4.38;;;3.70;;
46348;SDS011;32057;47.830;19.046;2022-08-24T15:51:16;8.73;;;4.15;;
46348;SDS011;32057;47.830;19.046;2022-08-24T15:53:55;5.03;;;3.47;;
46348;SDS011;32057;47.830;19.046;2022-08-24T15:56:26;6.00;;;2.92;;
46348;SDS011;32057;47.830;19.046;2022-08-24T15:59:10;6.38;;;3.30;;
46348;SDS011;32057;47.830;19.046;2022-08-24T16:01:37;5.10;;;3.33;;
46348;SDS011;32057;47.830;19.046;2022-08-24T16:04:41;4.38;;;3.97;;
46348;SDS011;32057;47.830;19.046;2022-08-24T16:07:14;3.83;;;3.42;;
46348;SDS011;32057;47.830;19.046;2022-08-24T16:09:46;4.82;;;4.15;;
46348;SDS011;32057;47.830;19.046;2022-08-24T16:12:13;4.68;;;4.10;;
46348;SDS011;32057;47.830;19.046;2022-08-24T16:14:46;4.55;;;4.15;;
46348;SDS011;32057;47.830;19.046;2022-08-24T16:17:19;8.18;;;4.03;;
46348;SDS011;32057;47.830;19.046;2022-08-24T16:20:02;3.88;;;3.55;;
46348;SDS011;32057;47.830;19.046;2022-08-24T16:22:35;6.50;;;4.07;;
46348;SDS011;32057;47.830;19.046;2022-08-24T16:25:07;3.90;;;3.28;;
46348;SDS011;32057;47.830;19.046;2022-08-24T16:27:54;3.97;;;3.55;;
46348;SDS011;32057;47.830;19.046;2022-08-24T16:32:51;4.63;;;3.15;;
46348;SDS011;32057;47.830;19.046;2022-08-24T16:35:20;3.55;;;3.25;;
46348;SDS011;32057;47.830;19.046;2022-08-24T16:37:47;3.95;;;2.90;;
46348;SDS011;32057;47.830;19.046;2022-08-24T16:40:13;3.60;;;2.95;;
46348;SDS011;32057;47.830;19.046;2022-08-24T16:42:39;3.22;;;2.92;;
46348;SDS011;32057;47.830;19.046;2022-08-24T16:45:05;3.88;;;3.17;;
46348;SDS011;32057;47.830;19.046;2022-08-24T16:47:34;3.40;;;2.22;;
46348;SDS011;32057;47.830;19.046;2022-08-24T16:50:00;4.10;;;2.75;;
46348;SDS011;32057;47.830;19.046;2022-08-24T16:52:25;3.97;;;2.88;;
46348;SDS011;32057;47.830;19.046;2022-08-24T16:54:51;3.28;;;2.35;;
46348;SDS011;32057;47.830;19.046;2022-08-24T16:57:20;2.50;;;2.28;;
46348;SDS011;32057;47.830;19.046;2022-08-24T16:59:49;3.10;;;1.93;;
46348;SDS011;32057;47.830;19.046;2022-08-24T17:02:16;4.55;;;2.40;;
46348;SDS011;32057;47.830;19.046;2022-08-24T17:04:44;2.42;;;2.22;;
46348;SDS011;32057;47.830;19.046;2022-08-24T17:07:11;7.68;;;3.13;;
46348;SDS011;32057;47.830;19.046;2022-08-24T17:09:40;6.18;;;3.03;;
46348;SDS011;32057;47.830;19.046;2022-08-24T17:12:08;2.88;;;2.65;;
46348;SDS011;32057;47.830;19.046;2022-08-24T17:14:34;2.75;;;2.55;;
46348;SDS011;32057;47.830;19.046;2022-08-24T17:17:02;3.20;;;2.63;;
46348;SDS011;32057;47.830;19.046;2022-08-24T17:19:30;4.10;;;2.20;;
46348;SDS011;32057;47.830;19.046;2022-08-24T17:21:57;3.53;;;3.13;;
46348;SDS011;32057;47.830;19.046;2022-08-24T17:24:22;7.53;;;2.88;;
46348;SDS011;32057;47.830;19.046;2022-08-24T17:26:48;2.58;;;2.35;;
46348;SDS011;32057;47.830;19.046;2022-08-24T17:29:17;9.18;;;3.63;;
46348;SDS011;32057;47.830;19.046;2022-08-24T17:31:43;3.67;;;2.65;;
46348;SDS011;32057;47.830;19.046;2022-08-24T17:34:10;3.22;;;2.58;;
46348;SDS011;32057;47.830;19.046;2022-08-24T17:36:36;3.42;;;3.13;;
46348;SDS011;32057;47.830;19.046;2022-08-24T17:39:04;3.92;;;2.80;;
46348;SDS011;32057;47.830;19.046;2022-08-24T17:41:31;3.00;;;2.60;;
46348;SDS011;32057;47.830;19.046;2022-08-24T17:43:57;4.65;;;3.15;;
46348;SDS011;32057;47.830;19.046;2022-08-24T17:46:25;3.33;;;2.92;;
46348;SDS011;32057;47.830;19.046;2022-08-24T17:48:52;2.70;;;2.50;;
46348;SDS011;32057;47.830;19.046;2022-08-24T17:51:18;6.55;;;2.70;;
46348;SDS011;32057;47.830;19.046;2022-08-24T17:53:43;6.05;;;3.08;;
46348;SDS011;32057;47.830;19.046;2022-08-24T17:56:09;3.85;;;2.88;;
46348;SDS011;32057;47.830;19.046;2022-08-24T17:58:37;2.47;;;1.95;;
46348;SDS011;32057;47.830;19.046;2022-08-24T18:01:22;3.90;;;3.10;;
46348;SDS011;32057;47.830;19.046;2022-08-24T18:03:48;6.70;;;4.28;;
46348;SDS011;32057;47.830;19.046;2022-08-24T18:06:14;3.20;;;2.58;;
46348;SDS011;32057;47.830;19.046;2022-08-24T18:08:42;2.83;;;2.55;;
46348;SDS011;32057;47.830;19.046;2022-08-24T18:11:08;3.72;;;2.40;;
46348;SDS011;32057;47.830;19.046;2022-08-24T18:13:33;4.60;;;2.63;;
46348;SDS011;32057;47.830;19.046;2022-08-24T18:15:59;4.72;;;3.20;;
46348;SDS011;32057;47.830;19.046;2022-08-24T18:18:25;4.47;;;2.95;;
46348;SDS011;32057;47.830;19.046;2022-08-24T18:20:50;5.20;;;2.40;;
46348;SDS011;32057;47.830;19.046;2022-08-24T18:23:16;4.97;;;4.28;;
46348;SDS011;32057;47.830;19.046;2022-08-24T18:25:45;5.00;;;3.33;;
46348;SDS011;32057;47.830;19.046;2022-08-24T18:28:13;14.40;;;3.60;;
46348;SDS011;32057;47.830;19.046;2022-08-24T18:30:40;5.88;;;4.22;;
46348;SDS011;32057;47.830;19.046;2022-08-24T18:33:06;3.85;;;3.42;;
46348;SDS011;32057;47.830;19.046;2022-08-24T18:35:32;3.03;;;2.72;;
46348;SDS011;32057;47.830;19.046;2022-08-24T18:37:58;4.80;;;3.53;;
46348;SDS011;32057;47.830;19.046;2022-08-24T18:40:24;3.40;;;3.10;;
46348;SDS011;32057;47.830;19.046;2022-08-24T18:42:51;4.05;;;2.92;;
46348;SDS011;32057;47.830;19.046;2022-08-24T18:45:16;3.35;;;2.92;;
46348;SDS011;32057;47.830;19.046;2022-08-24T18:47:42;3.17;;;2.88;;
46348;SDS011;32057;47.830;19.046;2022-08-24T18:50:08;3.55;;;2.92;;
46348;SDS011;32057;47.830;19.046;2022-08-24T18:52:35;6.35;;;3.95;;
46348;SDS011;32057;47.830;19.046;2022-08-24T18:55:01;3.45;;;3.15;;
46348;SDS011;32057;47.830;19.046;2022-08-24T18:57:27;3.60;;;3.15;;
46348;SDS011;32057;47.830;19.046;2022-08-24T18:59:53;3.00;;;2.70;;
46348;SDS011;32057;47.830;19.046;2022-08-24T19:02:19;6.10;;;3.58;;
46348;SDS011;32057;47.830;19.046;2022-08-24T19:05:06;7.78;;;4.93;;
46348;SDS011;32057;47.830;19.046;2022-08-24T19:07:36;5.57;;;3.83;;